createdAt,value
2018-12-27T00:01:26.986Z,70.33
2018-12-27T00:10:10.014Z,73.60
2018-12-27T00:14:17.059Z,78.50
2018-12-27T00:18:24.072Z,79.50
2018-12-27T00:22:30.936Z,74.50
2018-12-27T00:26:37.926Z,71.67
2018-12-27T00:30:45.046Z,78.30
2018-12-27T00:34:52.244Z,76.00
2018-12-27T00:38:59.409Z,66.43
2018-12-27T00:43:06.571Z,62.63
2018-12-27T00:51:36.270Z,74.07
2018-12-27T01:00:15.382Z,71.40
2018-12-27T01:04:22.610Z,70.73
2018-12-27T01:08:29.742Z,72.10
2018-12-27T01:12:36.936Z,67.70
2018-12-27T01:16:44.162Z,79.73
2018-12-27T01:20:51.303Z,77.50
2018-12-27T01:24:58.522Z,64.97
2018-12-27T01:29:05.692Z,68.00
2018-12-27T01:33:18.678Z,70.50
2018-12-27T01:37:30.656Z,63.10
2018-12-27T01:41:37.742Z,67.37
2018-12-27T01:50:12.856Z,62.43
2018-12-27T01:54:20.059Z,66.77
2018-12-27T01:59:06.722Z,60.57
2018-12-27T02:03:14.021Z,64.87
2018-12-27T02:07:21.382Z,60.43
2018-12-27T02:11:30.176Z,66.53
2018-12-27T02:15:37.492Z,61.23
2018-12-27T02:19:46.614Z,56.70
2018-12-27T02:23:53.770Z,59.47
2018-12-27T02:28:01.457Z,60.73
2018-12-27T02:32:08.621Z,62.47
2018-12-27T02:40:48.044Z,60.10
2018-12-27T02:44:55.449Z,60.77
2018-12-27T02:49:04.742Z,61.47
2018-12-27T02:57:34.261Z,62.93
2018-12-27T03:01:41.411Z,50.40
2018-12-27T03:05:48.573Z,51.37
2018-12-27T03:09:56.021Z,63.10
2018-12-27T03:14:03.229Z,69.83
2018-12-27T03:18:50.766Z,63.20
2018-12-27T03:22:59.078Z,48.97
2018-12-27T03:27:06.483Z,61.73
2018-12-27T03:31:13.604Z,67.43
2018-12-27T03:35:21.256Z,66.53
2018-12-27T03:39:28.913Z,60.37
2018-12-27T03:43:36.212Z,60.40
2018-12-27T03:52:14.853Z,56.80
2018-12-27T03:56:21.993Z,59.07
2018-12-27T04:00:29.160Z,65.77
2018-12-27T04:04:36.214Z,65.20
2018-12-27T04:08:43.536Z,72.20
2018-12-27T04:12:50.762Z,62.63
2018-12-27T04:16:58.646Z,56.60
2018-12-27T04:34:45.726Z,49.80
2018-12-27T04:38:52.610Z,58.23
2018-12-27T04:43:39.311Z,58.60
2018-12-27T04:52:36.563Z,63.77
2018-12-27T04:56:43.964Z,58.03
2018-12-27T05:00:51.118Z,63.60
2018-12-27T05:04:58.033Z,66.70
2018-12-27T05:09:25.575Z,63.67
2018-12-27T05:13:32.600Z,66.10
2018-12-27T05:17:53.654Z,61.07
2018-12-27T05:21:53.580Z,65.70
2018-12-27T05:26:00.892Z,64.27
2018-12-27T05:34:31.219Z,83.20
2018-12-27T05:38:38.130Z,80.07
2018-12-27T05:42:45.161Z,86.07
2018-12-27T05:46:52.120Z,78.87
2018-12-27T05:51:00.203Z,88.70
2018-12-27T05:59:57.101Z,79.07
2018-12-27T06:04:11.658Z,73.50
2018-12-27T06:08:19.634Z,71.33
2018-12-27T06:12:41.619Z,65.40
2018-12-27T06:16:50.241Z,63.70
2018-12-27T06:21:14.278Z,60.47
2018-12-27T06:25:15.100Z,61.37
2018-12-27T06:33:50.003Z,64.23
2018-12-27T06:37:57.625Z,60.03
2018-12-27T06:42:04.678Z,63.03
2018-12-27T06:46:11.607Z,57.23
2018-12-27T06:50:18.677Z,63.57
2018-12-27T06:54:27.282Z,64.03
2018-12-27T06:58:37.708Z,67.40
2018-12-27T07:03:01.993Z,62.87
2018-12-27T07:07:08.881Z,66.30
2018-12-27T07:11:16.080Z,70.07
2018-12-27T07:15:23.125Z,73.07
2018-12-27T07:19:31.690Z,74.33
2018-12-27T07:23:46.872Z,84.43
2018-12-27T07:27:53.951Z,75.57
2018-12-27T07:32:20.142Z,79.20
2018-12-27T07:36:27.065Z,80.63
2018-12-27T07:40:34.039Z,75.23
2018-12-27T07:44:40.961Z,84.07
2018-12-27T07:48:48.105Z,87.03
2018-12-27T07:52:55.075Z,80.27
2018-12-27T07:57:01.999Z,68.97
2018-12-27T08:01:09.016Z,63.97
2018-12-27T08:09:38.710Z,96.73
2018-12-27T08:13:45.668Z,76.17
2018-12-27T08:22:18.588Z,86.83
2018-12-27T08:26:25.537Z,82.80
2018-12-27T08:30:32.527Z,78.10
2018-12-27T08:34:39.613Z,96.27
2018-12-27T08:38:46.542Z,84.77
2018-12-27T08:42:53.594Z,90.80
2018-12-27T08:47:00.629Z,92.07
2018-12-27T08:51:07.641Z,90.47
2018-12-27T08:55:14.637Z,97.57
2018-12-27T08:59:21.602Z,89.00
2018-12-27T09:03:28.568Z,97.67
2018-12-27T09:07:35.478Z,80.27
2018-12-27T09:11:42.498Z,91.97
2018-12-27T09:15:49.521Z,87.27
2018-12-27T09:19:56.522Z,94.60
2018-12-27T09:24:04.998Z,91.60
2018-12-27T09:28:31.768Z,93.27
2018-12-27T09:32:42.316Z,92.80
2018-12-27T09:41:20.979Z,88.20
2018-12-27T09:45:27.993Z,87.67
2018-12-27T09:49:34.982Z,82.00
2018-12-27T09:58:13.584Z,69.43
2018-12-27T10:02:20.644Z,74.53
2018-12-27T10:06:27.726Z,81.47
2018-12-27T10:10:34.762Z,71.50
2018-12-27T10:14:55.886Z,73.53
2018-12-27T10:18:55.743Z,73.30
2018-12-27T10:23:02.687Z,70.43
2018-12-27T10:27:09.602Z,70.67
2018-12-27T10:31:16.726Z,67.90
2018-12-27T10:35:23.780Z,66.53
2018-12-27T10:39:30.627Z,67.07
2018-12-27T10:52:26.835Z,65.27
2018-12-27T11:00:59.591Z,62.50
2018-12-27T11:05:06.712Z,57.13
2018-12-27T11:09:13.666Z,61.80
2018-12-27T11:17:38.981Z,56.97
2018-12-27T11:21:45.866Z,54.50
2018-12-27T11:26:11.595Z,54.10
2018-12-27T11:30:18.823Z,52.77
2018-12-27T11:34:25.927Z,45.93
2018-12-27T11:38:32.847Z,48.13
2018-12-27T11:42:39.900Z,46.50
2018-12-27T11:46:46.756Z,41.93
2018-12-27T11:50:53.776Z,46.93
2018-12-27T11:55:00.809Z,44.20
2018-12-27T11:59:07.825Z,47.67
2018-12-27T12:03:31.979Z,43.87
2018-12-27T12:07:42.548Z,46.13
2018-12-27T12:11:49.946Z,53.93
2018-12-27T12:15:56.985Z,48.90
2018-12-27T12:20:04.981Z,53.87
2018-12-27T12:24:12.123Z,52.10
2018-12-27T12:28:19.522Z,61.60
2018-12-27T12:32:26.842Z,65.50
2018-12-27T12:36:34.502Z,74.60
2018-12-27T12:45:13.918Z,75.33
2018-12-27T12:49:20.948Z,77.40
2018-12-27T12:57:54.348Z,76.83
2018-12-27T13:02:02.137Z,73.43
2018-12-27T13:06:09.409Z,75.13
2018-12-27T13:10:16.734Z,70.57
2018-12-27T13:14:23.806Z,75.80
2018-12-27T13:18:30.873Z,72.27
2018-12-27T13:22:38.173Z,63.13
2018-12-27T13:31:03.692Z,61.10
2018-12-27T13:35:10.970Z,56.73
2018-12-27T13:39:37.398Z,58.33
2018-12-27T13:43:44.627Z,56.40
2018-12-27T13:47:51.834Z,56.47
2018-12-27T13:51:58.846Z,57.10
2018-12-27T14:00:25.427Z,54.20
2018-12-27T14:04:32.428Z,56.07
2018-12-27T14:13:24.495Z,59.57
2018-12-27T14:17:31.392Z,63.30
2018-12-27T14:21:38.299Z,66.87
2018-12-27T14:26:04.181Z,67.20
2018-12-27T14:30:11.270Z,64.13
2018-12-27T14:34:18.154Z,65.57
2018-12-27T14:38:25.126Z,74.73
2018-12-27T14:42:32.052Z,62.13
2018-12-27T14:46:39.470Z,66.90
2018-12-27T14:55:04.932Z,65.03
2018-12-27T14:59:11.844Z,72.57
2018-12-27T15:03:18.869Z,65.00
2018-12-27T15:07:25.822Z,69.93
2018-12-27T15:11:32.831Z,66.37
2018-12-27T15:15:39.633Z,58.00
2018-12-27T15:19:47.545Z,63.57
2018-12-27T15:23:54.497Z,60.63
2018-12-27T15:28:02.712Z,60.50
2018-12-27T15:32:09.914Z,64.33
2018-12-27T15:36:17.150Z,59.70
2018-12-27T15:40:26.852Z,57.60
2018-12-27T15:44:52.887Z,57.77
2018-12-27T15:49:18.825Z,62.27
2018-12-27T15:53:25.852Z,53.33
2018-12-27T15:57:44.506Z,61.70
2018-12-27T16:02:11.958Z,57.93
2018-12-27T16:06:19.159Z,52.73
2018-12-27T16:10:26.332Z,59.77
2018-12-27T16:19:16.181Z,53.50
2018-12-27T16:23:42.220Z,48.80
2018-12-27T16:27:49.191Z,52.33
2018-12-27T16:31:56.282Z,48.53
2018-12-27T16:36:05.390Z,54.80
2018-12-27T16:40:12.431Z,57.53
2018-12-27T16:44:19.314Z,74.93
2018-12-27T16:48:26.300Z,60.33
2018-12-27T16:57:04.952Z,59.20
2018-12-27T17:01:11.945Z,63.03
2018-12-27T17:05:40.891Z,59.17
2018-12-27T17:09:49.137Z,60.00
2018-12-27T17:14:16.925Z,64.57
2018-12-27T17:18:24.083Z,65.67
2018-12-27T17:22:31.176Z,59.53
2018-12-27T17:26:57.411Z,63.43
2018-12-27T17:31:23.221Z,67.13
2018-12-27T17:35:30.400Z,63.63
2018-12-27T17:44:28.523Z,66.57
2018-12-27T17:48:35.724Z,68.83
2018-12-27T17:52:42.776Z,72.77
2018-12-27T17:56:49.673Z,70.50
2018-12-27T18:00:56.768Z,66.97
2018-12-27T18:05:03.857Z,62.83
2018-12-27T18:09:11.085Z,74.83
2018-12-27T18:13:18.142Z,68.97
2018-12-27T18:17:26.676Z,79.33
2018-12-27T18:26:16.639Z,68.13
2018-12-27T18:30:24.234Z,77.17
2018-12-27T18:34:31.303Z,78.80
2018-12-27T18:38:39.866Z,61.60
2018-12-27T18:42:54.584Z,61.13
2018-12-27T18:47:01.829Z,68.13
2018-12-27T18:51:11.231Z,72.27
2018-12-27T18:55:20.229Z,66.60
2018-12-27T18:59:45.993Z,68.57
2018-12-27T19:03:53.135Z,62.43
2018-12-27T19:08:00.344Z,63.60
2018-12-27T19:12:45.638Z,62.57
2018-12-27T19:16:52.708Z,67.73
2018-12-27T19:21:25.985Z,67.23
2018-12-27T19:25:52.369Z,62.30
2018-12-27T19:30:18.486Z,63.43
2018-12-27T19:34:25.417Z,56.47
2018-12-27T19:38:32.595Z,65.43
2018-12-27T19:42:39.892Z,66.20
2018-12-27T19:46:47.111Z,64.63
2018-12-27T19:55:26.201Z,64.97
2018-12-27T19:59:33.364Z,63.87
2018-12-27T20:03:40.262Z,64.27
2018-12-27T20:07:47.489Z,72.87
2018-12-27T20:11:54.792Z,73.33
2018-12-27T20:16:01.995Z,80.60
2018-12-27T20:20:10.054Z,86.13
2018-12-27T20:28:53.365Z,92.73
2018-12-27T20:33:00.477Z,104.07
2018-12-27T20:37:08.165Z,98.60
2018-12-27T20:41:17.071Z,125.23
2018-12-27T20:45:24.728Z,104.13
2018-12-27T20:49:52.894Z,98.17
2018-12-27T20:53:59.945Z,121.77
2018-12-27T21:02:46.804Z,112.80
2018-12-27T21:11:21.662Z,124.67
2018-12-27T21:15:28.613Z,106.70
2018-12-27T21:19:38.746Z,115.47
2018-12-27T21:24:05.963Z,102.67
2018-12-27T21:33:11.930Z,107.83
2018-12-27T21:37:19.708Z,113.33
2018-12-27T21:41:26.801Z,119.07
2018-12-27T21:45:36.661Z,112.00
2018-12-27T21:50:10.503Z,108.90
2018-12-27T21:58:56.691Z,112.33
2018-12-27T22:03:03.690Z,116.30
2018-12-27T22:07:25.439Z,116.90
2018-12-27T22:11:39.303Z,106.70
2018-12-27T22:15:46.485Z,122.40
2018-12-27T22:19:54.015Z,138.33
2018-12-27T22:24:01.040Z,123.60
2018-12-27T22:28:08.095Z,124.17
2018-12-27T22:32:15.183Z,148.07
2018-12-27T22:36:22.267Z,128.33
2018-12-27T22:40:29.470Z,124.53
2018-12-27T22:44:36.594Z,135.63
2018-12-27T22:49:25.643Z,133.17
2018-12-27T22:53:35.264Z,119.10
2018-12-27T22:57:42.665Z,117.13
2018-12-27T23:02:08.709Z,123.63
2018-12-27T23:06:16.769Z,122.23
2018-12-27T23:10:26.184Z,115.27
2018-12-27T23:14:33.272Z,118.33
2018-12-27T23:18:40.322Z,122.50
2018-12-27T23:22:47.415Z,107.20
2018-12-27T23:26:54.375Z,117.83
2018-12-27T23:31:01.524Z,112.67
2018-12-27T23:39:34.066Z,109.13
2018-12-27T23:43:42.830Z,104.83
2018-12-27T23:47:50.152Z,98.53
2018-12-27T23:51:57.071Z,102.67
